Time;durP1;ratioP1;P1;durP2;ratioP2;P2;SDS_P1;SDS_P2;PMS_P1;PMS_P2;Temp;Humidity;BMP_temperature;BMP_pressure;BME280_temperature;BME280_humidity;BME280_pressure;Samples;Min_cycle;Max_cycle;Signal;HPM_P1;HPM_P2
2023/03/18 00:00:16;;;;;;;19.05;8.98;;;8.30;70.40;;;;;;4138630;28;20064;-83
2023/03/18 00:02:39;;;;;;;16.25;8.85;;;8.30;70.50;;;;;;4123704;28;20045;-82
2023/03/18 00:04:59;;;;;;;18.45;8.95;;;8.30;70.70;;;;;;4123182;28;20073;-83
2023/03/18 00:07:18;;;;;;;17.95;9.23;;;8.30;70.60;;;;;;4125455;28;20053;-83
2023/03/18 00:09:38;;;;;;;17.77;8.65;;;8.30;70.60;;;;;;4121195;28;20037;-83
2023/03/18 00:11:58;;;;;;;21.40;9.77;;;8.30;70.60;;;;;;4137144;28;20041;-82
2023/03/18 00:14:18;;;;;;;18.67;9.15;;;8.40;71.40;;;;;;4124685;28;20393;-82
2023/03/18 00:16:37;;;;;;;20.20;9.38;;;8.40;70.60;;;;;;4124916;28;20131;-83
2023/03/18 00:18:57;;;;;;;20.95;10.43;;;8.40;70.50;;;;;;4128010;28;20045;-83
2023/03/18 00:21:16;;;;;;;21.90;9.27;;;8.40;70.50;;;;;;4127064;28;20046;-83
2023/03/18 00:23:35;;;;;;;20.08;9.88;;;8.40;70.50;;;;;;4142619;28;21705;-84
2023/03/18 00:25:56;;;;;;;21.83;10.68;;;8.40;70.60;;;;;;4129538;28;20044;-83
2023/03/18 00:28:15;;;;;;;22.45;10.38;;;8.50;70.70;;;;;;4128032;28;20045;-83
2023/03/18 00:30:38;;;;;;;16.90;8.88;;;8.40;70.70;;;;;;4140464;28;20109;-83
2023/03/18 00:32:58;;;;;;;19.80;9.23;;;8.40;71.40;;;;;;4125459;28;20045;-83
2023/03/18 00:35:18;;;;;;;18.45;9.13;;;8.40;70.70;;;;;;4130291;28;20038;-83
2023/03/18 00:37:37;;;;;;;14.48;8.18;;;8.40;70.70;;;;;;4134867;28;20049;-83
2023/03/18 00:40:05;;;;;;;16.52;8.98;;;8.40;70.80;;;;;;4120283;28;20065;-82
2023/03/18 00:42:24;;;;;;;16.15;8.10;;;8.40;70.70;;;;;;4122709;28;20056;-82
2023/03/18 00:44:43;;;;;;;14.38;8.80;;;8.40;70.60;;;;;;4123205;28;20083;-82
2023/03/18 00:47:03;;;;;;;17.35;8.73;;;8.40;70.60;;;;;;4135824;28;20037;-83
2023/03/18 00:49:23;;;;;;;18.52;8.57;;;8.40;70.50;;;;;;4124489;28;20148;-83
2023/03/18 00:51:42;;;;;;;17.13;8.40;;;8.40;70.50;;;;;;4123647;28;20045;-83
2023/03/18 00:54:06;;;;;;;21.15;8.55;;;8.40;70.50;;;;;;4124290;28;20592;-83
2023/03/18 00:56:28;;;;;;;14.48;8.20;;;8.40;70.40;;;;;;4126879;28;20061;-82
2023/03/18 00:58:49;;;;;;;19.02;9.10;;;8.50;70.40;;;;;;4120903;28;20545;-83
2023/03/18 01:01:09;;;;;;;17.45;8.50;;;8.40;70.30;;;;;;4122336;28;20076;-83
2023/03/18 01:03:29;;;;;;;17.63;8.90;;;8.40;70.20;;;;;;4125452;28;20049;-83
2023/03/18 01:05:50;;;;;;;14.18;7.97;;;8.40;70.20;;;;;;4123984;28;20048;-83
2023/03/18 01:08:09;;;;;;;16.58;8.20;;;8.40;70.40;;;;;;4125974;28;20048;-83
2023/03/18 01:10:29;;;;;;;15.45;7.95;;;8.40;70.40;;;;;;4125341;28;20053;-83
2023/03/18 01:12:48;;;;;;;15.25;7.78;;;8.50;70.50;;;;;;4127902;28;20033;-83
2023/03/18 01:15:12;;;;;;;14.30;7.18;;;8.30;70.40;;;;;;4138561;28;20045;-82
2023/03/18 01:17:32;;;;;;;14.20;7.60;;;8.40;70.50;;;;;;4123677;28;20041;-82
2023/03/18 01:19:51;;;;;;;13.68;7.65;;;8.40;70.40;;;;;;4121112;28;20045;-83
2023/03/18 01:22:10;;;;;;;17.70;8.15;;;8.30;70.40;;;;;;4116621;28;20065;-83
2023/03/18 01:24:30;;;;;;;15.48;8.13;;;8.30;70.50;;;;;;4137880;28;21538;-82
2023/03/18 01:26:49;;;;;;;18.92;8.93;;;8.30;70.50;;;;;;4119782;28;20045;-83
2023/03/18 01:29:09;;;;;;;18.02;8.23;;;8.40;70.40;;;;;;4121546;28;20835;-83
2023/03/18 01:31:28;;;;;;;14.98;7.20;;;8.40;70.40;;;;;;4121439;28;20028;-82
2023/03/18 01:33:48;;;;;;;19.77;7.30;;;8.30;70.40;;;;;;4121624;28;20073;-84
2023/03/18 01:36:09;;;;;;;16.55;8.32;;;8.30;70.50;;;;;;4125364;28;20042;-83
2023/03/18 01:38:29;;;;;;;13.70;7.18;;;8.30;70.50;;;;;;4128836;28;20847;-83
2023/03/18 01:40:49;;;;;;;13.82;7.93;;;8.30;70.40;;;;;;4127819;28;20104;-83
2023/03/18 01:43:25;;;;;;;18.15;8.65;;;8.40;70.50;;;;;;4129212;28;20076;-83
2023/03/18 01:45:52;;;;;;;12.98;7.38;;;8.30;70.60;;;;;;4123710;28;20073;-82
2023/03/18 01:48:16;;;;;;;14.57;7.78;;;8.30;70.50;;;;;;4123353;28;20040;-83
2023/03/18 01:50:36;;;;;;;17.95;7.25;;;8.30;70.50;;;;;;4139775;28;20108;-83
2023/03/18 01:53:01;;;;;;;16.33;7.88;;;8.30;71.40;;;;;;4141118;28;20143;-83
2023/03/18 01:55:21;;;;;;;;;;;8.30;70.60;;;;;;4138405;28;20057;-83
2023/03/18 01:57:43;;;;;;;13.88;6.93;;;8.30;71.50;;;;;;4133741;28;19920;-82
2023/03/18 02:00:03;;;;;;;14.25;6.88;;;8.30;70.60;;;;;;4122567;28;20159;-82
2023/03/18 02:02:24;;;;;;;15.30;6.57;;;8.30;70.60;;;;;;4121044;28;20071;-83
2023/03/18 02:04:49;;;;;;;15.18;6.50;;;8.30;70.60;;;;;;4125691;28;20444;-82
2023/03/18 02:07:24;;;;;;;14.55;6.65;;;8.40;70.70;;;;;;4122012;28;20128;-82
2023/03/18 02:09:44;;;;;;;12.10;6.53;;;8.30;70.70;;;;;;4127699;28;20084;-84
2023/03/18 02:12:05;;;;;;;12.05;6.70;;;8.30;70.70;;;;;;4125689;28;20403;-83
2023/03/18 02:14:25;;;;;;;13.48;6.50;;;8.30;70.70;;;;;;4125468;28;20214;-83
2023/03/18 02:17:09;;;;;;;12.90;7.45;;;8.30;70.70;;;;;;4137046;28;20228;-83
2023/03/18 02:19:46;;;;;;;12.82;7.10;;;8.30;71.10;;;;;;4125495;28;20069;-83
2023/03/18 02:22:28;;;;;;;12.60;7.28;;;8.30;70.70;;;;;;4139520;28;20140;-83
2023/03/18 02:25:05;;;;;;;14.00;7.60;;;8.30;70.90;;;;;;4126107;28;20598;-83
2023/03/18 02:27:28;;;;;;;14.00;7.78;;;8.30;70.70;;;;;;4136836;28;20298;-83
2023/03/18 02:29:52;;;;;;;12.50;7.17;;;8.30;71.40;;;;;;4126974;28;20025;-83
2023/03/18 02:32:12;;;;;;;14.00;7.32;;;8.30;70.60;;;;;;4126652;28;20591;-83
2023/03/18 02:34:33;;;;;;;12.80;6.78;;;8.40;70.80;;;;;;4121153;28;20038;-82
2023/03/18 02:36:52;;;;;;;12.63;7.40;;;8.30;70.70;;;;;;4122287;28;20742;-82
2023/03/18 02:39:15;;;;;;;14.07;7.40;;;8.30;70.70;;;;;;4120416;28;20043;-83
2023/03/18 02:41:35;;;;;;;21.33;7.30;;;8.40;70.80;;;;;;4119531;28;20097;-82
2023/03/18 02:43:54;;;;;;;14.32;6.28;;;8.30;70.70;;;;;;4120236;28;20042;-82
2023/03/18 02:46:31;;;;;;;10.63;6.03;;;8.40;70.80;;;;;;4118183;28;20121;-82
2023/03/18 02:48:51;;;;;;;11.15;6.32;;;8.30;70.80;;;;;;4120485;28;20069;-83
2023/03/18 02:51:13;;;;;;;11.18;6.53;;;8.30;70.80;;;;;;4119890;28;20045;-82
2023/03/18 02:53:33;;;;;;;13.88;7.00;;;8.30;70.80;;;;;;4124019;28;20550;-82
2023/03/18 02:55:52;;;;;;;10.85;6.18;;;8.30;70.80;;;;;;4124044;28;20452;-83
2023/03/18 02:58:12;;;;;;;9.20;5.95;;;8.30;70.80;;;;;;4125597;28;20439;-82
2023/03/18 03:00:31;;;;;;;14.55;7.15;;;8.40;70.90;;;;;;4124382;28;20045;-82
2023/03/18 03:02:51;;;;;;;15.32;6.80;;;8.30;70.90;;;;;;4120523;28;20053;-83
2023/03/18 03:05:11;;;;;;;15.02;6.50;;;8.30;71.00;;;;;;4120492;28;20052;-82
2023/03/18 03:07:30;;;;;;;13.32;6.50;;;8.30;71.00;;;;;;4124127;28;20678;-83
2023/03/18 03:09:50;;;;;;;11.57;6.47;;;8.40;71.10;;;;;;4123666;28;20064;-82
2023/03/18 03:12:09;;;;;;;11.43;6.88;;;8.40;71.00;;;;;;4121623;28;20057;-82
2023/03/18 03:14:28;;;;;;;17.08;7.07;;;8.40;70.80;;;;;;4121773;28;20038;-82
2023/03/18 03:16:48;;;;;;;11.57;5.78;;;8.30;70.80;;;;;;4137965;28;20092;-83
2023/03/18 03:19:07;;;;;;;17.52;6.25;;;8.30;70.70;;;;;;4128238;28;20104;-83
2023/03/18 03:21:26;;;;;;;14.43;6.30;;;8.40;70.80;;;;;;4124472;28;20323;-82
2023/03/18 03:23:46;;;;;;;13.35;6.28;;;8.40;70.70;;;;;;4120126;28;20122;-83
2023/03/18 03:26:05;;;;;;;13.05;6.60;;;8.40;70.70;;;;;;4122258;28;20041;-83
2023/03/18 03:28:25;;;;;;;14.63;6.15;;;8.40;70.80;;;;;;4122906;28;20089;-83
2023/03/18 03:30:45;;;;;;;10.40;5.97;;;8.40;70.60;;;;;;4120771;28;20743;-82
2023/03/18 03:33:05;;;;;;;9.70;5.43;;;8.40;70.60;;;;;;4124998;28;20034;-83
2023/03/18 03:35:25;;;;;;;9.60;5.60;;;8.40;70.50;;;;;;4128258;28;20069;-82
2023/03/18 03:37:44;;;;;;;14.68;5.65;;;8.30;70.50;;;;;;4127694;28;20065;-83
2023/03/18 03:40:05;;;;;;;15.73;5.82;;;8.40;70.50;;;;;;4125455;28;20045;-83
2023/03/18 03:42:24;;;;;;;11.45;5.75;;;8.40;70.50;;;;;;4126432;28;20038;-82
2023/03/18 03:44:43;;;;;;;10.82;5.05;;;8.30;70.50;;;;;;4124055;28;20061;-83
2023/03/18 03:47:03;;;;;;;11.75;5.32;;;8.40;70.50;;;;;;4122312;28;20045;-82
2023/03/18 03:49:22;;;;;;;9.35;5.45;;;8.30;70.50;;;;;;4125431;28;20045;-82
2023/03/18 03:51:42;;;;;;;11.20;5.78;;;8.40;70.40;;;;;;4127398;28;20045;-82
2023/03/18 03:54:02;;;;;;;12.40;6.28;;;8.30;70.40;;;;;;4123304;28;20077;-83
2023/03/18 03:56:21;;;;;;;11.75;6.13;;;8.30;70.30;;;;;;4123386;28;20040;-83
2023/03/18 03:58:41;;;;;;;10.20;5.55;;;8.30;70.30;;;;;;4124599;28;20096;-83
2023/03/18 04:01:00;;;;;;;10.32;5.63;;;8.40;70.40;;;;;;4124533;28;20526;-82
2023/03/18 04:03:19;;;;;;;10.07;5.35;;;8.30;70.40;;;;;;4127311;28;20097;-82
2023/03/18 04:05:38;;;;;;;10.05;5.75;;;8.30;70.40;;;;;;4121838;28;20069;-83
2023/03/18 04:08:00;;;;;;;11.85;5.85;;;8.30;70.30;;;;;;4125136;28;20114;-83
2023/03/18 04:10:21;;;;;;;12.95;6.15;;;8.30;70.30;;;;;;4124617;28;20440;-82
2023/03/18 04:12:40;;;;;;;9.70;5.72;;;8.30;70.40;;;;;;4139154;28;20064;-82
2023/03/18 04:15:00;;;;;;;9.35;5.47;;;8.30;70.40;;;;;;4126545;28;20100;-81
2023/03/18 04:17:19;;;;;;;13.80;5.72;;;8.30;70.40;;;;;;4138479;28;20141;-82
2023/03/18 04:19:38;;;;;;;14.27;5.63;;;8.30;70.40;;;;;;4125593;28;20044;-82
2023/03/18 04:21:58;;;;;;;9.77;5.40;;;8.30;70.30;;;;;;4126551;28;20447;-83
2023/03/18 04:24:17;;;;;;;9.70;5.82;;;8.40;70.40;;;;;;4127509;28;20142;-83
2023/03/18 04:26:37;;;;;;;9.35;5.60;;;8.30;70.30;;;;;;4125068;28;20041;-83
2023/03/18 04:28:56;;;;;;;13.40;5.80;;;8.30;70.40;;;;;;4122445;28;20038;-84
2023/03/18 04:31:15;;;;;;;11.02;5.20;;;8.30;70.40;;;;;;4134481;28;20106;-83
2023/03/18 04:33:35;;;;;;;10.93;5.95;;;8.30;70.40;;;;;;4120916;28;20097;-82
2023/03/18 04:35:54;;;;;;;11.68;5.65;;;8.30;70.30;;;;;;4122369;28;20045;-82
2023/03/18 04:38:13;;;;;;;12.13;6.22;;;8.30;71.10;;;;;;4113868;28;20355;-82
2023/03/18 04:40:32;;;;;;;15.80;5.85;;;8.30;70.30;;;;;;4124056;28;20065;-83
2023/03/18 04:42:52;;;;;;;12.35;5.32;;;8.40;70.30;;;;;;4138464;28;20029;-82
2023/03/18 04:45:11;;;;;;;11.23;6.00;;;8.30;70.20;;;;;;4141064;28;20181;-82
2023/03/18 04:47:32;;;;;;;8.65;5.57;;;8.30;70.20;;;;;;4142242;28;20053;-82
2023/03/18 04:49:51;;;;;;;10.45;5.82;;;8.30;70.20;;;;;;4130690;28;20070;-82
2023/03/18 04:52:11;;;;;;;10.10;5.90;;;8.30;70.20;;;;;;4134600;28;20045;-83
2023/03/18 04:54:30;;;;;;;9.55;5.88;;;8.40;70.20;;;;;;4128256;28;20038;-83
2023/03/18 04:56:50;;;;;;;10.35;5.35;;;8.30;70.10;;;;;;4124570;28;20694;-82
2023/03/18 04:59:09;;;;;;;14.52;6.50;;;8.40;70.10;;;;;;4120330;28;20073;-83
2023/03/18 05:01:28;;;;;;;9.70;5.15;;;8.30;70.00;;;;;;4133590;28;20097;-82
2023/03/18 05:03:48;;;;;;;11.48;5.72;;;8.40;70.10;;;;;;4122948;28;20093;-82
2023/03/18 05:06:08;;;;;;;13.30;5.82;;;8.30;70.00;;;;;;4122561;28;20084;-83
2023/03/18 05:08:27;;;;;;;11.13;5.63;;;8.30;70.00;;;;;;4136523;28;20040;-82
2023/03/18 05:10:49;;;;;;;12.43;5.13;;;8.30;70.10;;;;;;4128790;28;20304;-82
2023/03/18 05:13:09;;;;;;;10.98;5.80;;;8.30;70.10;;;;;;4135922;28;20108;-82
2023/03/18 05:15:28;;;;;;;11.70;5.30;;;8.40;70.20;;;;;;4128235;28;20655;-82
2023/03/18 05:17:47;;;;;;;12.52;5.82;;;8.30;70.20;;;;;;4124886;28;20044;-83
2023/03/18 05:20:09;;;;;;;8.57;5.63;;;8.30;70.20;;;;;;4128272;28;20411;-82
2023/03/18 05:22:28;;;;;;;12.23;5.50;;;8.30;71.00;;;;;;4127505;28;20061;-82
2023/03/18 05:24:47;;;;;;;9.60;5.40;;;8.30;70.30;;;;;;4126702;28;20129;-82
2023/03/18 05:27:06;;;;;;;14.93;5.43;;;8.30;70.20;;;;;;4138334;28;20462;-82
2023/03/18 05:29:26;;;;;;;11.73;5.50;;;8.30;70.20;;;;;;4125105;28;20080;-83
2023/03/18 05:31:45;;;;;;;9.98;5.85;;;8.30;70.20;;;;;;4124911;28;20106;-82
2023/03/18 05:34:06;;;;;;;10.75;5.70;;;8.30;70.20;;;;;;4127091;28;20086;-82
2023/03/18 05:36:25;;;;;;;12.73;6.10;;;8.40;70.30;;;;;;4125445;28;20739;-83
2023/03/18 05:38:44;;;;;;;10.10;6.03;;;8.30;70.30;;;;;;4123735;28;20057;-82
2023/03/18 05:41:04;;;;;;;10.35;6.03;;;8.40;70.30;;;;;;4126608;28;20523;-82
2023/03/18 05:43:23;;;;;;;11.82;6.03;;;8.40;70.30;;;;;;4124425;28;20093;-83
2023/03/18 05:45:42;;;;;;;10.20;6.13;;;8.40;70.30;;;;;;4125359;28;20048;-82
2023/03/18 05:48:02;;;;;;;9.10;5.40;;;8.40;70.20;;;;;;4125511;28;20037;-83
2023/03/18 05:50:34;;;;;;;9.30;5.47;;;8.40;70.30;;;;;;4123155;28;20037;-83
2023/03/18 05:52:53;;;;;;;8.18;5.22;;;8.40;70.40;;;;;;4126140;28;20487;-82
2023/03/18 05:55:13;;;;;;;12.38;5.95;;;8.40;70.40;;;;;;4130946;28;20088;-82
2023/03/18 05:57:32;;;;;;;10.13;5.65;;;8.40;70.50;;;;;;4125594;28;20041;-82
2023/03/18 05:59:51;;;;;;;8.48;5.75;;;8.40;70.50;;;;;;4121244;28;20053;-82
2023/03/18 06:02:11;;;;;;;10.45;5.32;;;8.40;70.50;;;;;;4124897;28;20566;-82
2023/03/18 06:04:30;;;;;;;10.70;5.78;;;8.40;70.60;;;;;;4121082;28;20065;-83
2023/03/18 06:06:50;;;;;;;8.60;5.70;;;8.50;70.70;;;;;;4122531;28;20053;-83
2023/03/18 06:09:11;;;;;;;9.85;5.97;;;8.50;70.80;;;;;;4126093;28;20041;-83
2023/03/18 06:11:30;;;;;;;9.73;5.90;;;8.50;70.80;;;;;;4124024;28;20045;-82
2023/03/18 06:13:49;;;;;;;13.80;6.15;;;8.50;70.80;;;;;;4122445;28;20123;-82
2023/03/18 06:16:08;;;;;;;9.30;5.63;;;8.50;70.90;;;;;;4124032;28;20112;-83
2023/03/18 06:18:27;;;;;;;9.77;6.35;;;8.50;71.00;;;;;;4124731;28;20448;-82
2023/03/18 06:20:47;;;;;;;14.10;6.63;;;8.50;71.00;;;;;;4121258;28;20137;-82
2023/03/18 06:23:06;;;;;;;15.98;6.95;;;8.40;71.00;;;;;;4123571;28;20040;-83
2023/03/18 06:25:25;;;;;;;15.30;7.07;;;8.50;71.20;;;;;;4119191;28;20140;-81
2023/03/18 06:27:45;;;;;;;15.77;7.10;;;8.50;71.20;;;;;;4121847;28;20037;-82
2023/03/18 06:30:12;;;;;;;14.50;7.13;;;8.50;71.30;;;;;;4121812;28;20486;-82
2023/03/18 06:32:32;;;;;;;12.98;6.93;;;8.50;71.50;;;;;;4117793;28;20037;-82
2023/03/18 06:34:51;;;;;;;13.57;7.50;;;8.50;71.40;;;;;;4120963;28;20045;-82
2023/03/18 06:37:11;;;;;;;14.07;7.20;;;8.50;71.50;;;;;;4118132;28;20122;-84
2023/03/18 06:39:30;;;;;;;11.30;6.88;;;8.40;71.50;;;;;;4129130;28;20163;-82
2023/03/18 06:41:50;;;;;;;11.65;7.03;;;8.40;71.60;;;;;;4119992;28;20185;-82
2023/03/18 06:44:09;;;;;;;13.90;7.15;;;8.50;71.70;;;;;;4134047;28;20108;-82
2023/03/18 06:46:29;;;;;;;15.60;7.32;;;8.50;71.80;;;;;;4116088;28;20088;-82
2023/03/18 06:48:49;;;;;;;13.27;6.95;;;8.40;71.70;;;;;;4122162;28;21437;-83
2023/03/18 06:51:08;;;;;;;12.93;6.32;;;8.50;71.90;;;;;;4125297;28;20042;-82
2023/03/18 06:53:28;;;;;;;13.77;7.13;;;8.50;71.90;;;;;;4124804;28;20103;-83
2023/03/18 06:55:48;;;;;;;17.33;7.88;;;8.50;71.90;;;;;;4125682;28;20062;-82
2023/03/18 06:58:07;;;;;;;16.80;7.18;;;8.50;72.00;;;;;;4125485;28;21341;-82
2023/03/18 07:00:27;;;;;;;14.65;7.35;;;8.50;72.10;;;;;;4123350;28;20080;-82
2023/03/18 07:02:46;;;;;;;14.50;7.03;;;8.50;72.10;;;;;;4122947;28;20049;-82
2023/03/18 07:05:06;;;;;;;17.63;7.75;;;8.50;72.10;;;;;;4123096;28;20045;-84
2023/03/18 07:07:26;;;;;;;12.82;6.78;;;8.50;72.20;;;;;;4120603;28;20053;-82
2023/03/18 07:09:46;;;;;;;11.18;6.90;;;8.50;72.90;;;;;;4119678;28;20037;-82
2023/03/18 07:12:06;;;;;;;14.60;8.32;;;8.50;72.10;;;;;;4126358;28;20110;-82
2023/03/18 07:14:27;;;;;;;16.45;8.10;;;8.50;72.20;;;;;;4128945;28;20044;-82
2023/03/18 07:16:46;;;;;;;15.10;7.05;;;8.50;72.40;;;;;;4120246;28;20037;-82
2023/03/18 07:19:06;;;;;;;17.77;7.95;;;8.50;72.60;;;;;;4123166;28;20085;-82
2023/03/18 07:21:26;;;;;;;12.77;7.47;;;8.50;72.70;;;;;;4119243;28;20563;-82
2023/03/18 07:23:46;;;;;;;15.38;7.60;;;8.50;72.80;;;;;;4121650;28;20066;-82
2023/03/18 07:26:05;;;;;;;16.02;8.48;;;8.50;73.00;;;;;;4119396;28;20073;-81
2023/03/18 07:28:24;;;;;;;13.95;8.48;;;8.50;73.10;;;;;;4136512;28;20093;-82
2023/03/18 07:30:44;;;;;;;12.18;8.00;;;8.60;73.10;;;;;;4120497;28;20087;-82
2023/03/18 07:33:04;;;;;;;15.25;8.32;;;8.60;73.20;;;;;;4116598;28;20105;-82
2023/03/18 07:35:23;;;;;;;16.58;8.27;;;8.60;73.30;;;;;;4122317;28;20042;-83
2023/03/18 07:37:42;;;;;;;13.65;7.35;;;8.60;73.30;;;;;;4130322;28;20101;-83
2023/03/18 07:40:02;;;;;;;16.30;8.07;;;8.60;73.30;;;;;;4122863;28;20049;-82
2023/03/18 07:42:22;;;;;;;15.30;7.93;;;8.70;73.40;;;;;;4134843;28;20049;-82
2023/03/18 07:44:41;;;;;;;11.73;7.35;;;8.80;73.50;;;;;;4122460;28;20138;-83
2023/03/18 07:47:01;;;;;;;16.83;8.48;;;8.70;73.40;;;;;;4115108;28;20739;-82
2023/03/18 07:49:20;;;;;;;15.73;8.43;;;8.70;73.40;;;;;;4119504;28;20085;-82
2023/03/18 07:51:39;;;;;;;15.93;8.30;;;8.70;73.40;;;;;;4138931;28;20155;-82
2023/03/18 07:53:59;;;;;;;14.43;8.05;;;8.70;73.40;;;;;;4120424;28;20050;-81
2023/03/18 07:56:19;;;;;;;15.75;8.38;;;8.80;73.60;;;;;;4133661;28;20299;-82
2023/03/18 07:58:38;;;;;;;18.40;9.63;;;8.80;73.60;;;;;;4121452;28;20072;-82
2023/03/18 08:00:58;;;;;;;17.85;8.45;;;8.80;73.60;;;;;;4121783;28;20129;-82
2023/03/18 08:03:17;;;;;;;15.90;8.82;;;8.90;73.70;;;;;;4112790;28;20048;-82
2023/03/18 08:05:37;;;;;;;17.67;8.93;;;8.90;73.80;;;;;;4141076;28;20049;-82
2023/03/18 08:07:57;;;;;;;12.88;8.52;;;8.90;73.90;;;;;;4137062;28;20507;-82
2023/03/18 08:10:16;;;;;;;14.07;7.95;;;9.00;73.90;;;;;;4136543;28;20613;-83
2023/03/18 08:12:36;;;;;;;16.13;8.52;;;9.00;74.00;;;;;;4139270;28;20616;-81
2023/03/18 08:14:55;;;;;;;15.57;8.15;;;9.00;74.00;;;;;;4140089;28;20053;-82
2023/03/18 08:17:14;;;;;;;15.50;8.68;;;9.10;74.10;;;;;;4138346;28;20045;-81
2023/03/18 08:19:33;;;;;;;15.60;9.10;;;9.20;74.30;;;;;;4138370;28;20190;-82
2023/03/18 08:21:53;;;;;;;26.58;9.93;;;9.10;74.20;;;;;;4135388;28;20076;-82
2023/03/18 08:24:12;;;;;;;15.70;9.00;;;9.20;74.20;;;;;;4134531;28;20073;-82
2023/03/18 08:26:32;;;;;;;15.25;8.32;;;9.20;74.20;;;;;;4134941;28;20570;-81
2023/03/18 08:28:50;;;;;;;16.83;9.82;;;9.30;74.10;;;;;;4136420;28;20041;-82
2023/03/18 08:31:10;;;;;;;16.65;9.18;;;9.40;74.30;;;;;;4122206;28;20053;-82
2023/03/18 08:33:29;;;;;;;22.95;9.43;;;9.30;74.10;;;;;;4122340;28;20096;-82
2023/03/18 08:35:48;;;;;;;14.93;8.40;;;9.40;74.20;;;;;;4141118;28;20056;-82
2023/03/18 08:38:08;;;;;;;17.63;9.38;;;9.50;74.20;;;;;;4142152;28;20088;-82
2023/03/18 08:40:27;;;;;;;17.55;8.77;;;9.50;74.20;;;;;;4136727;28;20037;-82
2023/03/18 08:42:46;;;;;;;19.20;8.60;;;9.50;74.00;;;;;;4139966;28;20092;-83
2023/03/18 08:45:06;;;;;;;19.92;9.18;;;9.50;73.90;;;;;;4145567;28;20072;-82
2023/03/18 08:47:26;;;;;;;16.15;8.70;;;9.60;73.80;;;;;;4125233;28;20050;-82
2023/03/18 08:49:45;;;;;;;16.58;8.60;;;9.70;73.80;;;;;;4131394;28;20146;-82
2023/03/18 08:52:05;;;;;;;16.02;9.07;;;9.70;73.80;;;;;;4145008;28;20307;-82
2023/03/18 08:54:24;;;;;;;16.15;8.85;;;9.70;73.70;;;;;;4139750;28;20045;-81
2023/03/18 08:56:43;;;;;;;16.13;8.75;;;9.70;73.70;;;;;;4133585;28;20040;-82
2023/03/18 08:59:03;;;;;;;17.70;9.13;;;9.80;73.70;;;;;;4142627;28;20731;-81
2023/03/18 09:01:23;;;;;;;17.52;8.38;;;9.80;73.70;;;;;;4126713;28;20412;-82
2023/03/18 09:03:43;;;;;;;15.00;8.75;;;9.80;73.50;;;;;;4122455;28;20080;-82
2023/03/18 09:06:03;;;;;;;21.88;9.70;;;9.90;73.60;;;;;;4135116;28;20741;-81
2023/03/18 09:08:23;;;;;;;17.17;8.70;;;9.90;73.50;;;;;;4138361;28;20085;-81
2023/03/18 09:10:44;;;;;;;17.27;9.45;;;10.00;73.50;;;;;;4135052;28;20036;-82
2023/03/18 09:13:04;;;;;;;20.23;9.35;;;10.00;73.40;;;;;;4124499;28;20045;-82
2023/03/18 09:15:24;;;;;;;20.08;10.25;;;10.10;73.50;;;;;;4128931;28;20053;-82
2023/03/18 09:17:43;;;;;;;18.35;9.50;;;10.10;73.60;;;;;;4136538;28;20041;-81
2023/03/18 09:20:39;;;;;;;16.73;9.98;;;10.20;73.60;;;;;;4149369;28;20806;-82
2023/03/18 09:22:59;;;;;;;17.83;10.10;;;10.20;73.50;;;;;;4148174;28;20045;-83
2023/03/18 09:25:19;;;;;;;17.00;9.80;;;10.30;73.60;;;;;;4132389;28;20577;-81
2023/03/18 09:27:38;;;;;;;18.05;10.70;;;10.30;73.60;;;;;;4145994;28;20049;-83
2023/03/18 09:29:58;;;;;;;17.17;10.10;;;10.40;73.70;;;;;;4144190;28;20126;-80
2023/03/18 09:32:17;;;;;;;17.95;9.63;;;10.50;73.70;;;;;;4145881;28;20045;-80
2023/03/18 09:34:36;;;;;;;20.00;10.00;;;10.50;73.40;;;;;;4145825;28;20033;-81
2023/03/18 09:36:56;;;;;;;22.83;11.10;;;10.60;73.30;;;;;;4144004;28;20056;-81
2023/03/18 09:39:19;;;;;;;17.35;10.48;;;10.70;73.20;;;;;;4139521;28;20048;-81
2023/03/18 09:42:08;;;;;;;18.85;10.80;;;10.80;73.20;;;;;;4143551;28;20175;-81
2023/03/18 09:44:32;;;;;;;21.85;11.63;;;10.80;72.90;;;;;;4145567;28;20037;-81
2023/03/18 09:47:20;;;;;;;26.00;11.15;;;10.90;72.70;;;;;;4131071;28;20146;-81
2023/03/18 09:49:45;;;;;;;20.55;11.15;;;11.00;72.40;;;;;;4143234;28;20069;-81
2023/03/18 09:52:19;;;;;;;18.90;11.82;;;11.00;72.10;;;;;;4140376;28;20033;-83
2023/03/18 09:54:53;;;;;;;22.45;11.88;;;11.10;71.80;;;;;;4139367;28;20060;-81
2023/03/18 09:57:26;;;;;;;20.52;12.30;;;11.10;71.60;;;;;;4125944;28;20424;-81
2023/03/18 10:00:08;;;;;;;21.90;12.25;;;11.20;71.50;;;;;;4145772;28;20044;-81
2023/03/18 10:02:41;;;;;;;25.52;11.82;;;11.20;71.30;;;;;;4148166;28;20061;-82
2023/03/18 10:05:09;;;;;;;21.17;11.75;;;11.30;71.20;;;;;;4131509;28;20049;-83
2023/03/18 10:07:34;;;;;;;29.67;11.18;;;11.30;71.10;;;;;;4144731;28;20574;-82
2023/03/18 10:09:59;;;;;;;18.63;11.60;;;11.40;71.20;;;;;;4144918;28;20072;-82
2023/03/18 10:12:44;;;;;;;22.27;11.80;;;11.40;70.90;;;;;;4142562;28;20178;-83
2023/03/18 10:15:12;;;;;;;;;;;11.50;70.70;;;;;;4147783;28;20060;-83
2023/03/18 10:17:40;;;;;;;23.63;10.88;;;11.50;70.60;;;;;;4142369;28;19960;-81
2023/03/18 10:20:05;;;;;;;21.10;11.75;;;11.60;70.50;;;;;;4139891;28;20114;-84
2023/03/18 10:22:49;;;;;;;22.80;11.75;;;11.60;70.30;;;;;;4138839;28;20100;-82
2023/03/18 10:25:20;;;;;;;22.33;11.68;;;11.70;70.20;;;;;;4140579;28;20072;-84
2023/03/18 10:28:15;;;;;;;20.88;12.10;;;11.70;70.00;;;;;;4139046;28;20041;-82
2023/03/18 10:30:53;;;;;;;25.45;13.15;;;11.70;69.90;;;;;;4138152;28;20069;-82
2023/03/18 10:33:26;;;;;;;24.05;12.43;;;11.80;69.90;;;;;;4138920;28;20088;-82
2023/03/18 10:36:03;;;;;;;21.85;12.23;;;11.80;69.50;;;;;;4137802;28;20037;-82
2023/03/18 10:38:45;;;;;;;23.55;12.57;;;11.80;69.40;;;;;;4136545;28;20521;-81
2023/03/18 10:41:16;;;;;;;29.08;13.27;;;11.80;69.50;;;;;;4136395;28;20523;-82
2023/03/18 10:43:36;;;;;;;26.48;12.75;;;11.90;69.50;;;;;;4136865;28;20131;-81
2023/03/18 10:46:07;;;;;;;23.58;13.95;;;11.90;69.70;;;;;;4135093;28;20041;-81
2023/03/18 10:48:32;;;;;;;25.00;13.80;;;11.90;69.80;;;;;;4134880;28;20092;-81
2023/03/18 10:50:55;;;;;;;;;;;12.10;70.00;;;;;;4137386;28;20765;-82
2023/03/18 10:53:33;;;;;;;27.92;12.48;;;12.20;70.20;;;;;;4139560;28;19956;-82
2023/03/18 10:55:52;;;;;;;27.45;13.52;;;12.20;69.90;;;;;;4140323;28;20044;-81
2023/03/18 10:58:17;;;;;;;23.58;13.55;;;12.30;69.90;;;;;;4140610;28;21228;-82
2023/03/18 11:00:36;;;;;;;24.75;13.77;;;12.40;69.90;;;;;;4128555;28;20041;-82
2023/03/18 11:02:56;;;;;;;26.70;13.30;;;12.50;69.70;;;;;;4135706;28;20115;-82
2023/03/18 11:05:30;;;;;;;24.48;12.85;;;12.50;69.40;;;;;;4123479;28;20120;-82
2023/03/18 11:07:58;;;;;;;27.00;14.55;;;12.60;69.00;;;;;;4138205;28;20077;-82
2023/03/18 11:10:24;;;;;;;26.10;14.43;;;12.60;68.30;;;;;;4139861;28;20029;-81
2023/03/18 11:12:44;;;;;;;33.72;13.98;;;12.70;68.10;;;;;;4136254;28;20040;-82
2023/03/18 11:15:09;;;;;;;32.17;15.90;;;12.70;67.40;;;;;;4123143;28;20069;-82
2023/03/18 11:17:32;;;;;;;25.45;14.60;;;12.70;67.00;;;;;;4134723;28;20927;-82
2023/03/18 11:20:44;;;;;;;29.23;15.48;;;12.70;66.90;;;;;;4137650;28;20077;-82
2023/03/18 11:23:11;;;;;;;25.15;14.73;;;12.70;66.70;;;;;;4117104;28;20048;-82
2023/03/18 11:25:31;;;;;;;28.35;15.63;;;12.80;67.20;;;;;;4137962;28;20052;-81
2023/03/18 11:27:56;;;;;;;28.08;14.85;;;12.80;67.40;;;;;;4137772;28;20277;-82
2023/03/18 11:30:20;;;;;;;24.75;14.35;;;12.80;67.30;;;;;;4132236;28;20885;-82
2023/03/18 11:32:57;;;;;;;30.73;15.55;;;12.90;67.40;;;;;;4123687;28;20097;-82
2023/03/18 11:35:49;;;;;;;31.60;15.05;;;12.90;67.10;;;;;;4134826;28;20654;-82
2023/03/18 11:38:27;;;;;;;32.25;15.27;;;12.90;66.90;;;;;;4139148;28;20558;-81
2023/03/18 11:40:46;;;;;;;27.58;14.95;;;13.00;66.90;;;;;;4136454;28;20087;-82
2023/03/18 11:43:17;;;;;;;28.13;16.38;;;13.00;66.70;;;;;;4134812;28;20091;-82
2023/03/18 11:45:58;;;;;;;29.00;15.30;;;13.10;66.40;;;;;;4138591;28;20593;-82
2023/03/18 11:48:38;;;;;;;26.35;15.40;;;13.10;66.00;;;;;;4132381;28;20322;-81
2023/03/18 11:51:12;;;;;;;34.13;17.02;;;13.10;66.00;;;;;;4135818;28;20084;-81
2023/03/18 11:53:53;;;;;;;24.73;14.63;;;13.20;65.80;;;;;;4138337;28;20064;-82
2023/03/18 11:56:33;;;;;;;32.65;16.02;;;13.20;65.80;;;;;;4137249;28;20060;-81
2023/03/18 11:59:26;;;;;;;46.20;26.30;;;13.30;66.10;;;;;;4139939;28;20131;-83
2023/03/18 12:02:04;;;;;;;34.08;18.67;;;13.30;66.40;;;;;;4137499;28;20139;-82
2023/03/18 12:04:48;;;;;;;35.53;18.23;;;13.30;66.00;;;;;;4137952;28;20040;-82
2023/03/18 12:07:17;;;;;;;32.43;18.27;;;13.40;65.90;;;;;;4090473;28;20129;-82
2023/03/18 12:09:59;;;;;;;33.10;17.42;;;13.40;65.60;;;;;;4138911;28;20041;-82
2023/03/18 12:12:18;;;;;;;33.10;18.42;;;13.50;64.80;;;;;;4141073;28;20067;-82
2023/03/18 12:15:02;;;;;;;30.95;17.48;;;13.50;64.60;;;;;;4124499;28;20404;-81
2023/03/18 12:17:30;;;;;;;36.13;18.00;;;13.60;64.10;;;;;;4139709;28;20092;-83
2023/03/18 12:20:17;;;;;;;36.30;19.98;;;13.60;64.10;;;;;;4142901;28;20057;-82